Alcot, South Carolina
Current Conditions -  °F | °C
As of 9:35 AM on Thursday 30 Oct 2014 (Local Time) from KCDN Reporting Station
Clear Clear  
Wind Chill: 57°   Ceiling: Unl
Heat Index: 57°   Visibility: 10mi
Dew Point: 43°   Wind: 9mph
Humidity: 59%   Direction: 20°NNE
Pressure: 30.06"   Gusts: NA
Location:  34.2324°N, 80.2824°W
Report Text: KCDN 301335Z AUTO 02008KT 10SM CLR 14/06 A3006 RMK AO2 TSNO
Loading
Personal Weather Stations






























Interactive Weather Map
Tropical Storm Tracking
New forecast layout! Learn more

10-Day Weather Forecast

Advertisements
Track Severe Weather on mobile